Latest Weather Observations for Mount Magnet Airport

IDW60801

Issued at 1:05 pm WST Saturday 29 November 2014 (issued every 30 minutes, with the page automatically refreshed every 10 minutes)

About weather observations | Map of weather stations | Latest weather observations for WA | Other Formats
Station Details ID: 007600 Name: MOUNT MAGNET AERO Lat: -28.12 Lon: 117.84 Height: 407.0 m
Data from the previous 72 hours. | See also: Recent months at Mount Magnet Airport
Date/Time
WST
Temp
°C
App
Temp
°C
Dew
Point
Rel
Hum
%
Delta-T
°C
Wind Press
QNH
hPa
Press
MSL
hPa
Rain
since 9 am
mm
Dir
 
Spd
km/h
Gust
km/h
Spd
kts
Gust
kts
29/01:00pm 29.9 24.6 3.0 18 13.8 WSW 20 32 11 17 1011.4 1009.0 0.0
29/12:30pm 29.8 26.6 5.1 21 13.1 W 11 26 6 14 1011.7 1009.3 0.0
29/12:00pm 29.5 27.1 6.8 24 12.4 S 9 17 5 9 1012.1 1009.8 0.0
29/11:30am 27.8 24.8 7.6 28 11.1 S 13 20 7 11 1012.4 1010.1 0.0
29/11:00am 27.7 23.7 8.1 29 10.8 SW 19 26 10 14 1012.8 1010.5 0.0
29/10:30am 25.7 23.4 9.1 35 9.2 SE 11 15 6 8 1013.1 1010.8 0.0
29/10:00am 24.7 22.5 10.9 42 7.9 S 13 22 7 12 1013.6 1011.3 0.0
29/09:30am 23.4 20.6 11.5 47 6.8 SSE 17 20 9 11 1013.8 1011.5 0.0
29/09:00am 23.2 21.7 11.9 49 6.5 SSW 11 20 6 11 1013.8 1011.5 0.0
29/08:30am 21.4 19.7 12.3 56 5.2 SSE 13 19 7 10 1014.1 1011.7 0.0
29/08:00am 20.9 19.3 12.8 60 4.7 SSE 13 17 7 9 1014.2 1011.9 0.0
29/07:30am 19.3 17.3 12.6 65 3.8 S 15 20 8 11 1014.3 1012.0 0.0
29/07:00am 18.6 15.8 12.6 68 3.4 S 19 24 10 13 1014.3 1012.0 0.0
29/06:30am 18.2 15.3 12.4 69 3.3 S 19 24 10 13 1014.2 1011.9 0.0
29/06:00am 17.7 15.2 12.2 70 3.1 S 17 20 9 11 1013.8 1011.5 0.0
29/05:30am 17.4 15.2 12.1 71 3.0 SSW 15 20 8 11 1013.5 1011.2 0.0
29/05:00am 17.5 15.0 12.2 71 3.0 SSW 17 20 9 11 1013.1 1010.8 0.0
29/04:30am 18.1 15.5 12.1 68 3.4 SSW 17 20 9 11 1012.8 1010.5 0.0
29/04:00am 18.5 15.9 12.0 66 3.7 SSW 17 22 9 12 1012.8 1010.5 0.0
29/03:30am 19.1 15.9 11.9 63 4.1 SSW 20 32 11 17 1012.7 1010.4 0.0
29/03:00am 19.8 16.6 11.8 60 4.5 SSW 20 26 11 14 1012.6 1010.3 0.0
29/02:30am 20.5 17.3 12.0 58 4.8 SSW 20 28 11 15 1012.5 1010.2 0.0
29/02:00am 21.0 17.8 11.9 56 5.2 SSW 20 28 11 15 1012.5 1010.2 0.0
29/01:30am 21.8 18.8 11.8 53 5.7 SSW 19 26 10 14 1012.5 1010.2 0.0
29/01:00am 22.5 19.3 11.9 51 6.1 SSW 20 26 11 14 1012.5 1010.2 0.0
29/12:30am 23.1 19.6 12.1 50 6.3 SSW 22 30 12 16 1012.5 1010.2 0.0
29/12:00am 23.8 20.9 12.4 48 6.6 SSW 19 28 10 15 1012.6 1010.3 0.0
 
Date/Time
WST
Temp
°C
App
Temp
°C
Dew
Point
Rel
Hum
%
Delta-T
°C
Wind Press
QNH
hPa
Press
MSL
hPa
Rain
since 9 am
mm
Dir
 
Spd
km/h
Gust
km/h
Spd
kts
Gust
kts
28/11:30pm 24.4 21.1 12.7 48 6.9 SSW 22 30 12 16 1012.5 1010.2 0.0
28/11:00pm 24.8 21.4 12.4 46 7.3 SSW 22 32 12 17 1012.6 1010.3 0.0
28/10:30pm 25.4 21.9 12.3 44 7.7 SSW 22 32 12 17 1012.6 1010.3 0.0
28/10:00pm 26.1 21.5 12.2 42 8.1 SSW 28 39 15 21 1012.5 1010.2 0.0
28/09:30pm 27.0 21.3 11.1 37 9.2 SSW 32 37 17 20 1012.2 1009.9 0.0
28/09:00pm 28.2 23.7 9.9 32 10.4 SW 24 33 13 18 1011.9 1009.5 0.0
28/08:30pm 28.9 24.8 8.0 27 11.6 WSW 19 28 10 15 1011.5 1009.1 0.0
28/08:00pm 29.4 25.2 7.3 25 12.1 WSW 19 24 10 13 1011.0 1008.7 0.0
28/07:30pm 29.9 25.6 7.2 24 12.5 WSW 19 28 10 15 1010.9 1008.6 0.0
28/07:00pm 30.4 25.8 6.3 22 13.1 WSW 20 28 11 15 1010.5 1008.2 0.0
28/06:30pm 31.1 26.3 7.5 23 13.1 WSW 22 30 12 16 1010.2 1007.9 0.0
28/06:00pm 31.5 25.4 6.5 21 13.7 W 28 35 15 19 1009.9 1007.6 0.0
28/05:30pm 32.2 27.9 7.1 21 13.9 WNW 19 30 10 16 1009.6 1007.2 0.0
28/05:00pm 32.5 27.3 7.4 21 14.0 W 24 39 13 21 1009.3 1006.9 0.0
28/04:30pm 32.7 27.4 6.8 20 14.3 W 24 35 13 19 1009.3 1006.9 0.0
28/04:00pm 32.7 27.5 5.3 18 14.8 WNW 22 32 12 17 1009.3 1006.9 0.0
28/03:30pm 32.7 27.2 7.5 21 14.1 W 26 33 14 18 1009.4 1007.0 0.0
28/03:00pm 32.5 26.3 8.0 22 13.8 W 30 43 16 23 1009.7 1007.3 0.0
28/02:30pm 33.0 27.7 9.7 24 13.5 WSW 28 41 15 22 1009.8 1007.5 0.0
28/02:00pm 31.4 26.3 10.7 28 12.1 W 28 41 15 22 1010.1 1007.8 0.0
28/01:30pm 32.9 29.2 11.4 27 12.8 W 22 39 12 21 1010.2 1007.9 0.0
28/01:00pm 30.7 26.8 12.1 32 11.1 W 24 28 13 15 1010.5 1008.2 0.0
28/12:30pm 30.2 26.8 12.6 34 10.6 WSW 22 28 12 15 1010.6 1008.3 0.0
28/12:00pm 29.8 25.3 12.7 35 10.3 NW 28 37 15 20 1011.0 1008.7 0.0
28/11:30am 28.9 25.2 12.8 37 9.6 W 24 37 13 20 1011.2 1008.9 0.0
28/11:00am 29.4 25.8 13.2 37 9.8 W 24 30 13 16 1011.6 1009.2 0.0
28/10:30am 28.1 25.3 13.2 39 8.9 WNW 20 32 11 17 1011.9 1009.5 0.0
28/10:00am 27.4 24.5 14.1 44 8.1 WNW 22 35 12 19 1012.1 1009.8 0.0
28/09:30am 26.6 24.9 14.7 48 7.3 WNW 17 26 9 14 1012.1 1009.8 0.0
28/09:00am 26.1 23.8 14.6 49 7.0 W 20 30 11 16 1012.1 1009.8 0.0
28/08:30am 24.7 22.9 14.5 53 6.2 WSW 17 22 9 12 1012.2 1009.9 0.0
28/08:00am 23.6 21.9 14.6 57 5.4 W 17 22 9 12 1012.1 1009.8 0.0
28/07:30am 22.7 20.3 14.3 59 5.0 WSW 20 26 11 14 1011.9 1009.5 0.0
28/07:00am 22.6 20.1 14.2 59 5.0 W 20 30 11 16 1011.9 1009.5 0.0
28/06:30am 21.8 19.3 14.2 62 4.5 W 20 33 11 18 1011.7 1009.3 0.0
28/06:00am 21.3 19.2 14.7 66 4.0 W 19 26 10 14 1011.4 1009.0 0.0
28/05:30am 20.9 20.1 15.0 69 3.5 WNW 13 15 7 8 1010.9 1008.6 0.0
28/05:00am 21.0 19.4 14.9 68 3.7 WNW 17 20 9 11 1010.7 1008.4 0.0
28/04:30am 21.3 20.4 14.9 67 3.8 NW 13 19 7 10 1010.3 1008.0 0.0
28/04:00am 21.5 21.4 14.9 66 4.0 NW 9 15 5 8 1009.4 1007.0 0.0
28/03:30am 22.0 21.1 14.9 64 4.3 W 13 17 7 9 1009.3 1006.9 0.0
28/03:00am 22.3 21.0 14.9 63 4.5 W 15 19 8 10 1009.1 1006.7 0.0
28/02:30am 22.8 21.6 15.1 62 4.7 W 15 20 8 11 1008.6 1006.3 0.0
28/02:00am 24.1 22.6 15.3 58 5.4 SW 17 26 9 14 1008.9 1006.5 0.0
28/01:30am 24.5 22.0 15.1 55 5.7 SW 22 30 12 16 1009.1 1006.7 0.0
28/01:00am 25.1 22.5 14.8 52 6.3 SW 22 28 12 15 1009.3 1006.9 0.0
28/12:30am 25.6 23.4 15.0 52 6.5 WSW 20 32 11 17 1009.4 1007.0 0.0
28/12:00am 26.0 23.2 15.4 52 6.5 SW 24 33 13 18 1009.6 1007.2 0.0
 
Date/Time
WST
Temp
°C
App
Temp
°C
Dew
Point
Rel
Hum
%
Delta-T
°C
Wind Press
QNH
hPa
Press
MSL
hPa
Rain
since 9 am
mm
Dir
 
Spd
km/h
Gust
km/h
Spd
kts
Gust
kts
27/11:30pm 26.6 24.2 15.3 50 7.0 SW 22 30 12 16 1009.8 1007.5 0.0
27/11:00pm 27.0 23.3 15.1 48 7.3 SW 28 37 15 20 1009.6 1007.2 0.0
27/10:30pm 28.6 25.6 14.8 43 8.5 WSW 24 39 13 21 1009.2 1006.8 0.0
27/10:00pm 28.1 27.3 14.0 42 8.6 NNW 11 13 6 7 1008.4 1006.1 0.0
27/09:30pm 28.3 27.5 13.0 39 9.2 N 9 9 5 5 1008.6 1006.3 0.0
27/09:00pm 29.1 28.7 12.9 37 9.7 N 7 9 4 5 1008.6 1006.3 0.0
27/08:30pm 30.1 29.2 12.5 34 10.5 NNW 9 11 5 6 1008.8 1006.4 0.0
27/08:00pm 31.2 29.1 12.5 31 11.3 NNW 15 17 8 9 1008.9 1006.5 0.0
27/07:30pm 31.9 29.2 11.7 29 12.0 NW 17 22 9 12 1008.6 1006.3 0.0
27/07:00pm 32.4 29.1 11.6 28 12.4 NW 20 26 11 14 1008.2 1005.9 0.0
27/06:30pm 32.8 28.1 11.9 28 12.5 NW 28 33 15 18 1008.0 1005.7 0.0
27/06:00pm 33.7 29.2 11.5 26 13.3 NW 26 37 14 20 1007.8 1005.5 0.0
27/05:30pm 33.7 28.5 11.5 26 13.3 NW 30 41 16 22 1007.8 1005.5 0.0
27/05:00pm 34.4 29.0 10.9 24 14.0 NNW 30 44 16 24 1007.8 1005.5 0.0
27/04:30pm 33.9 28.9 11.1 25 13.6 NW 28 37 15 20 1008.0 1005.7 0.0
27/04:00pm 34.6 31.0 11.7 25 13.8 N 22 30 12 16 1008.1 1005.8 0.0
27/03:30pm 35.7 31.2 12.6 25 14.2 NNW 28 43 15 23 1008.4 1006.1 0.0
27/03:00pm 34.7 30.9 11.2 24 14.1 NNW 22 39 12 21 1008.6 1006.3 0.0
27/02:30pm 34.0 30.0 14.0 30 12.4 NNW 28 41 15 22 1009.1 1006.7 0.0
27/02:00pm 35.2 31.1 15.0 30 12.8 NW 30 43 16 23 1009.5 1007.1 0.0
27/01:45pm 33.3 29.4 14.4 32 11.8 NNW 28 46 15 25 1009.7 1007.3 0.0
27/01:30pm 32.4 29.5 15.0 35 10.9 NNW 24 39 13 21 1009.9 1007.6 0.0
27/01:00pm 33.0 29.9 15.5 35 11.1 NNW 26 39 14 21 1010.3 1008.0 0.0
27/12:30pm 33.5 30.0 14.5 31 11.9 NNW 26 39 14 21 1010.6 1008.3 0.0
27/12:00pm 31.7 29.5 14.4 35 10.7 N 19 30 10 16 1011.0 1008.7 0.0
27/11:30am 30.5 28.8 14.6 38 9.8 N 17 28 9 15 1011.5 1009.1 0.0
27/11:00am 29.2 26.7 14.2 40 9.2 N 20 30 11 16 1011.8 1009.4 0.0
27/10:30am 28.6 26.5 14.8 43 8.5 N 19 28 10 15 1012.0 1009.7 0.0
27/10:00am 27.9 25.7 14.9 45 8.0 NNE 20 30 11 16 1012.3 1010.0 0.0
27/09:30am 26.5 24.1 15.5 50 6.8 NNE 22 32 12 17 1012.6 1010.3 0.0
27/09:00am 25.6 22.7 15.0 52 6.5 NNE 24 33 13 18 1012.6 1010.3 3.0
27/08:30am 24.5 20.7 14.6 54 6.0 NNE 28 37 15 20 1012.7 1010.4 3.0
27/08:00am 23.9 20.9 14.9 57 5.5 NE 24 33 13 18 1013.0 1010.7 3.0
27/07:30am 22.5 20.4 15.1 63 4.5 NE 20 32 11 17 1013.4 1011.1 3.0
27/07:00am 21.2 19.6 15.1 68 3.7 NE 17 20 9 11 1013.3 1011.0 3.0
27/06:30am 19.3 18.0 14.8 75 2.7 NE 15 20 8 11 1013.2 1010.9 3.0
27/06:00am 18.6 17.2 14.5 77 2.4 NE 15 20 8 11 1013.1 1010.8 3.0
27/05:30am 18.2 16.7 14.3 78 2.3 NE 15 19 8 10 1012.8 1010.5 3.0
27/05:00am 17.4 16.8 14.5 83 1.7 ENE 11 13 6 7 1012.6 1010.3 3.0
27/04:30am 17.5 16.8 14.4 82 1.8 E 11 13 6 7 1012.5 1010.2 3.0
27/04:00am 17.6 17.0 14.5 82 1.8 ESE 11 13 6 7 1012.4 1010.1 3.0
27/03:30am 17.8 17.7 14.9 83 1.7 SE 9 13 5 7 1012.1 1009.8 3.0
27/03:00am 18.6 18.6 14.3 76 2.5 ESE 7 11 4 6 1012.0 1009.7 3.0
27/02:30am 18.9 19.1 14.2 74 2.8 E 6 9 3 5 1011.8 1009.4 3.0
27/02:00am 19.1 19.1 14.1 73 2.9 NE 7 11 4 6 1011.7 1009.3 3.0
27/01:30am 19.3 18.6 14.3 73 2.9 N 11 17 6 9 1012.1 1009.8 3.0
27/01:00am 19.4 18.2 14.0 71 3.2 NNE 13 15 7 8 1011.9 1009.5 3.0
27/12:30am 20.1 18.8 13.8 67 3.7 NNE 13 19 7 10 1012.0 1009.7 3.0
27/12:00am 20.9 19.5 13.4 62 4.4 NNE 13 22 7 12 1012.4 1010.1 3.0
 
Date/Time
WST
Temp
°C
App
Temp
°C
Dew
Point
Rel
Hum
%
Delta-T
°C
Wind Press
QNH
hPa
Press
MSL
hPa
Rain
since 9 am
mm
Dir
 
Spd
km/h
Gust
km/h
Spd
kts
Gust
kts
26/11:30pm 21.8 19.1 12.9 57 5.2 NE 19 28 10 15 1011.9 1009.5 3.0
26/11:00pm 21.6 17.8 13.5 60 4.8 N 26 33 14 18 1012.6 1010.3 3.0
26/10:40pm 21.6 16.6 13.5 60 4.8 E 32 46 17 25 1011.6 1009.2 3.0
26/10:30pm 20.7 18.2 14.1 66 3.9 E 20 28 11 15 1013.3 1011.0 3.0
26/10:27pm 20.8 18.4 13.7 64 4.2 E 19 22 10 12 1014.1 1011.7 3.0
26/10:00pm 22.9 20.7 12.2 51 6.2 N 15 24 8 13 1016.2 1013.9 3.0
26/09:48pm 22.5 20.2 13.0 55 5.6 NW 17 26 9 14 1015.6 1013.3 3.0
26/09:30pm 21.2 13.3 12.6 58 5.0 ENE 46 57 25 31 1013.7 1011.4 2.8
26/09:21pm 20.4 13.2 13.1 63 4.2 ENE 43 50 23 27 1014.4 1012.1 2.6
26/09:00pm 20.8 15.8 13.3 62 4.4 N 32 41 17 22 1016.2 1013.9 1.8
26/08:30pm 21.3 17.8 13.5 61 4.6 N 24 35 13 19 1015.5 1013.2 1.0
26/08:00pm 21.4 16.3 13.8 62 4.5 NW 33 43 18 23 1015.6 1013.3 0.6
26/07:30pm 19.9 15.7 14.7 72 3.1 NW 30 41 16 22 1015.1 1012.8 0.4
26/07:00pm 20.1 14.1 14.5 70 3.3 WNW 39 50 21 27 1014.6 1012.3 0.4
26/06:43pm 20.5 15.9 14.6 69 3.5 WNW 32 52 17 28 1014.4 1012.1 0.4
26/06:30pm 20.1 16.1 15.3 74 2.9 WNW 30 43 16 23 1014.5 1012.2 0.2
26/06:01pm 23.6 17.1 12.9 51 6.3 W 39 57 21 31 1013.3 1011.0 0.0
26/06:00pm 23.7 16.9 13.0 51 6.3 W 41 57 22 31 1013.3 1011.0 0.0
26/05:30pm 27.1 21.1 10.7 35 9.4 W 33 44 18 24 1012.3 1010.0 0.0
26/05:19pm 28.4 21.1 10.1 32 10.5 W 39 44 21 24 1012.0 1009.7 0.0
26/05:00pm 29.6 26.8 8.6 27 11.8 W 13 17 7 9 1011.4 1009.0 0.0
26/04:30pm 30.2 28.0 8.0 25 12.4 NNW 9 20 5 11 1010.9 1008.6 0.0
26/04:00pm 29.5 28.7 9.6 29 11.4 WSW 4 11 2 6 1010.4 1008.1 0.0
26/03:30pm 29.0 27.0 10.2 31 10.8 SSE 11 15 6 8 1010.1 1007.8 0.0
26/03:00pm 27.7 24.3 11.3 36 9.5 SW 20 28 11 15 1011.2 1008.9 0.0
26/02:30pm 26.0 22.3 12.8 44 7.8 WSW 24 32 13 17 1012.1 1009.8 0.0
26/02:00pm 27.4 23.1 12.2 39 9.0 W 26 39 14 21 1012.8 1010.5 0.0
26/01:49pm 27.9 23.2 11.9 37 9.4 W 28 37 15 20 1012.9 1010.6 0.0
26/01:30pm 28.4 26.0 11.5 35 9.9 W 15 17 8 9 1012.7 1010.4 0.0

Other Formats:

Comma delimited format used in spreadsheet applications
http://www.bom.gov.au/fwo/IDW60801/IDW60801.94429.axf

JavaScript Object Notation format (JSON) in row-major order
http://www.bom.gov.au/fwo/IDW60801/IDW60801.94429.json